Time;durP1;ratioP1;P1;durP2;ratioP2;P2;SDS_P1;SDS_P2;PMS_P1;PMS_P2;Temp;Humidity;BMP_temperature;BMP_pressure;BME280_temperature;BME280_humidity;BME280_pressure;Samples;Min_cycle;Max_cycle;Signal;HPM_P1;HPM_P2
2023/02/07 00:00:20;;;;;;;25.40;6.50;;;2.70;99.90;;;;;;4986891;28;20043;-63
2023/02/07 00:02:47;;;;;;;25.35;5.78;;;2.60;99.90;;;;;;4987313;28;20057;-63
2023/02/07 00:05:14;;;;;;;18.52;6.07;;;2.70;99.90;;;;;;4987613;28;20706;-63
2023/02/07 00:07:41;;;;;;;26.35;7.35;;;2.50;99.90;;;;;;4986288;28;20058;-64
2023/02/07 00:10:08;;;;;;;18.88;7.32;;;2.50;99.90;;;;;;4987011;28;20133;-63
2023/02/07 00:12:35;;;;;;;20.10;4.97;;;2.50;99.90;;;;;;4986842;28;20561;-62
2023/02/07 00:15:02;;;;;;;21.10;5.07;;;2.50;99.90;;;;;;4986793;28;20042;-63
2023/02/07 00:17:29;;;;;;;31.20;6.07;;;2.50;99.90;;;;;;4987064;28;20058;-62
2023/02/07 00:19:56;;;;;;;15.60;5.95;;;2.40;99.90;;;;;;4969893;28;20052;-63
2023/02/07 00:22:22;;;;;;;17.00;5.70;;;2.40;99.90;;;;;;4986692;28;20141;-61
2023/02/07 00:24:49;;;;;;;15.02;4.95;;;2.40;99.90;;;;;;4986977;28;20068;-63
2023/02/07 00:27:16;;;;;;;16.35;6.50;;;2.30;99.90;;;;;;4986995;28;20058;-61
2023/02/07 00:29:43;;;;;;;14.20;5.13;;;2.30;99.90;;;;;;4987181;28;20042;-62
2023/02/07 00:32:10;;;;;;;12.73;4.90;;;2.30;99.90;;;;;;4986480;28;20627;-62
2023/02/07 00:34:37;;;;;;;17.17;4.88;;;2.20;99.90;;;;;;4969101;28;20121;-62
2023/02/07 00:37:04;;;;;;;21.27;5.85;;;2.20;99.90;;;;;;4986817;28;20043;-63
2023/02/07 00:39:31;;;;;;;21.95;5.97;;;2.30;99.90;;;;;;4984038;28;20050;-63
2023/02/07 00:41:57;;;;;;;16.38;6.38;;;2.20;99.90;;;;;;4990584;28;20050;-63
2023/02/07 00:44:24;;;;;;;22.33;5.32;;;2.10;99.90;;;;;;4989957;28;20110;-62
2023/02/07 00:46:51;;;;;;;23.13;6.05;;;2.10;99.90;;;;;;4999027;28;20070;-61
2023/02/07 00:49:17;;;;;;;18.88;4.97;;;2.00;99.90;;;;;;4993139;28;20552;-62
2023/02/07 00:51:44;;;;;;;17.67;6.30;;;2.00;99.90;;;;;;4990225;28;20046;-62
2023/02/07 00:54:11;;;;;;;18.10;4.85;;;2.00;99.90;;;;;;4973025;28;20219;-62
2023/02/07 00:56:38;;;;;;;16.52;5.03;;;2.00;99.90;;;;;;4952039;28;1115904;-62
2023/02/07 00:59:05;;;;;;;27.02;5.63;;;2.00;99.90;;;;;;4991653;28;20053;-63
2023/02/07 01:01:32;;;;;;;18.05;5.63;;;2.00;99.90;;;;;;4991494;28;20076;-63
2023/02/07 01:03:58;;;;;;;17.08;6.00;;;1.90;99.90;;;;;;4991250;28;20093;-63
2023/02/07 01:06:26;;;;;;;19.90;6.80;;;1.90;99.90;;;;;;4991427;28;20156;-63
2023/02/07 01:08:57;;;;;;;22.73;7.65;;;1.90;99.90;;;;;;4991038;28;20074;-63
2023/02/07 01:11:24;;;;;;;22.10;5.70;;;1.90;99.90;;;;;;4991175;28;20437;-62
2023/02/07 01:13:50;;;;;;;27.10;5.75;;;2.20;99.90;;;;;;4991150;28;20057;-64
2023/02/07 01:16:28;;;;;;;16.40;5.50;;;1.80;99.90;;;;;;4974205;28;20053;-63
2023/02/07 01:18:55;;;;;;;15.10;5.65;;;1.80;99.90;;;;;;4993491;28;20064;-63
2023/02/07 01:21:23;;;;;;;14.48;5.00;;;2.00;99.90;;;;;;4990783;28;20520;-63
2023/02/07 01:23:50;;;;;;;21.52;8.00;;;1.60;99.90;;;;;;4990935;28;20064;-63
2023/02/07 01:26:17;;;;;;;21.08;5.70;;;1.60;99.90;;;;;;4990913;28;20421;-63
2023/02/07 01:28:44;;;;;;;17.33;4.95;;;1.60;99.90;;;;;;4990718;28;20046;-63
2023/02/07 01:31:11;;;;;;;22.63;6.05;;;1.60;99.90;;;;;;4973414;28;20141;-63
2023/02/07 01:33:38;;;;;;;17.75;5.28;;;1.60;99.90;;;;;;4991098;28;20466;-64
2023/02/07 01:36:09;;;;;;;13.40;4.55;;;1.60;99.90;;;;;;4995548;28;20061;-64
2023/02/07 01:38:36;;;;;;;12.38;4.50;;;1.60;99.90;;;;;;4990581;28;20058;-63
2023/02/07 01:41:03;;;;;;;14.88;4.78;;;1.60;99.90;;;;;;4990371;28;20050;-64
2023/02/07 01:43:30;;;;;;;16.52;6.20;;;1.50;99.90;;;;;;4990528;28;20050;-63
2023/02/07 01:45:57;;;;;;;19.98;6.00;;;1.50;99.90;;;;;;4990396;28;20057;-64
2023/02/07 01:48:34;;;;;;;18.75;4.95;;;1.50;99.90;;;;;;4986325;28;20690;-62
2023/02/07 01:51:03;;;;;;;16.30;4.95;;;1.50;99.90;;;;;;4965309;28;20249;-62
2023/02/07 01:53:30;;;;;;;15.68;7.03;;;1.40;99.90;;;;;;4973221;28;20054;-63
2023/02/07 01:56:00;;;;;;;16.05;6.30;;;1.50;99.90;;;;;;4974077;28;20046;-63
2023/02/07 01:58:27;;;;;;;21.73;4.30;;;1.40;99.90;;;;;;5008564;28;20050;-62
2023/02/07 02:00:53;;;;;;;20.65;5.47;;;1.40;99.90;;;;;;5024605;28;20038;-63
2023/02/07 02:03:20;;;;;;;17.70;4.05;;;1.40;99.90;;;;;;5008451;28;20512;-64
2023/02/07 02:05:47;;;;;;;14.40;4.78;;;1.40;99.90;;;;;;5008724;28;20048;-62
2023/02/07 02:08:14;;;;;;;18.10;4.60;;;1.40;99.90;;;;;;5009848;28;20444;-62
2023/02/07 02:10:53;;;;;;;22.77;6.97;;;1.40;99.90;;;;;;5009519;28;20049;-63
2023/02/07 02:13:31;;;;;;;15.02;4.18;;;1.30;99.90;;;;;;5024955;28;20058;-63
2023/02/07 02:16:19;;;;;;;20.42;4.43;;;1.30;99.90;;;;;;5008388;28;20042;-62
2023/02/07 02:18:59;;;;;;;22.88;4.30;;;1.20;99.90;;;;;;5008452;28;20185;-62
2023/02/07 02:21:51;;;;;;;16.30;4.10;;;1.10;99.90;;;;;;5008484;28;20042;-62
2023/02/07 02:24:24;;;;;;;17.83;4.47;;;1.20;99.90;;;;;;5009554;28;20057;-63
2023/02/07 02:26:55;;;;;;;18.08;4.57;;;1.10;99.90;;;;;;5024628;28;20041;-63
2023/02/07 02:29:49;;;;;;;14.77;4.30;;;1.10;99.90;;;;;;5024114;28;20620;-63
2023/02/07 02:32:37;;;;;;;14.77;4.68;;;1.10;99.90;;;;;;5007953;28;20052;-64
2023/02/07 02:35:27;;;;;;;21.60;5.22;;;1.10;99.90;;;;;;5009564;28;20054;-63
2023/02/07 02:38:12;;;;;;;17.73;5.43;;;1.00;99.90;;;;;;5021528;28;20509;-62
2023/02/07 02:40:39;;;;;;;16.33;4.43;;;1.00;99.90;;;;;;5007688;28;20046;-61
2023/02/07 02:43:11;;;;;;;22.23;4.65;;;1.00;99.90;;;;;;5007621;28;20057;-63
2023/02/07 02:45:41;;;;;;;15.68;6.43;;;1.00;99.90;;;;;;5009228;28;20601;-63
2023/02/07 02:48:09;;;;;;;17.33;5.32;;;1.00;99.90;;;;;;4991307;28;20054;-62
2023/02/07 02:50:35;;;;;;;20.98;4.57;;;0.90;99.90;;;;;;5026269;28;20053;-63
2023/02/07 02:53:02;;;;;;;20.75;4.43;;;1.00;99.90;;;;;;5013244;28;20049;-62
2023/02/07 02:55:55;;;;;;;14.50;5.13;;;1.00;99.90;;;;;;5008879;28;20509;-63
2023/02/07 02:58:59;;;;;;;13.27;5.03;;;1.00;99.90;;;;;;5006922;28;20068;-62
2023/02/07 03:01:47;;;;;;;22.17;5.05;;;0.90;99.90;;;;;;4989276;28;20130;-63
2023/02/07 03:04:43;;;;;;;15.68;4.28;;;0.90;99.90;;;;;;5006796;28;20042;-63
2023/02/07 03:07:28;;;;;;;14.25;4.90;;;0.80;99.90;;;;;;5023284;28;20070;-63
2023/02/07 03:09:58;;;;;;;18.63;6.28;;;0.80;99.90;;;;;;5009088;28;20042;-63
2023/02/07 03:12:27;;;;;;;26.05;5.80;;;0.70;99.90;;;;;;5009735;28;20069;-63
2023/02/07 03:15:03;;;;;;;17.88;6.25;;;0.70;99.90;;;;;;5009023;28;20507;-62
2023/02/07 03:17:34;;;;;;;23.70;5.95;;;0.70;99.90;;;;;;5008844;28;20054;-62
2023/02/07 03:20:06;;;;;;;32.30;7.75;;;0.60;99.90;;;;;;5032543;28;20056;-64
2023/02/07 03:22:33;;;;;;;23.80;5.70;;;0.50;99.90;;;;;;5008129;28;20089;-63
2023/02/07 03:25:00;;;;;;;22.00;5.78;;;0.40;99.90;;;;;;5007900;28;20413;-64
2023/02/07 03:27:27;;;;;;;18.58;5.95;;;0.50;99.90;;;;;;5008256;28;20107;-64
2023/02/07 03:29:58;;;;;;;21.63;5.82;;;0.50;99.90;;;;;;5007749;28;20296;-63
2023/02/07 03:32:28;;;;;;;16.40;5.28;;;0.50;99.90;;;;;;5007647;28;20054;-63
2023/02/07 03:35:09;;;;;;;15.43;5.70;;;0.50;99.90;;;;;;5006708;28;20056;-63
2023/02/07 03:37:41;;;;;;;17.00;6.00;;;0.50;99.90;;;;;;5023375;28;20678;-62
2023/02/07 03:40:09;;;;;;;20.88;7.60;;;0.50;99.90;;;;;;5007895;28;20064;-63
2023/02/07 03:43:01;;;;;;;29.98;10.70;;;0.60;99.90;;;;;;5006687;28;20423;-63
2023/02/07 03:45:27;;;;;;;32.58;9.25;;;0.70;99.90;;;;;;5007433;28;20046;-63
2023/02/07 03:47:54;;;;;;;37.70;7.55;;;0.70;99.90;;;;;;5007909;28;20056;-63
2023/02/07 03:50:21;;;;;;;39.00;8.25;;;0.70;99.90;;;;;;5008096;28;20064;-62
2023/02/07 03:52:47;;;;;;;28.25;8.18;;;0.70;99.90;;;;;;5008074;28;20060;-62
2023/02/07 03:55:14;;;;;;;43.35;10.77;;;0.70;99.90;;;;;;5007414;28;20141;-63
2023/02/07 03:57:41;;;;;;;39.90;9.40;;;0.70;99.90;;;;;;4993808;28;20055;-63
2023/02/07 04:00:09;;;;;;;53.95;10.10;;;0.70;99.90;;;;;;4988042;28;20064;-63
2023/02/07 04:02:35;;;;;;;39.90;7.18;;;0.70;99.90;;;;;;4988034;28;20509;-64
2023/02/07 04:05:02;;;;;;;46.08;9.23;;;0.70;99.90;;;;;;4987052;28;20077;-64
2023/02/07 04:07:29;;;;;;;26.52;9.13;;;0.70;99.90;;;;;;4987965;28;20086;-63
2023/02/07 04:09:56;;;;;;;41.28;10.73;;;0.70;99.90;;;;;;4987752;28;20401;-64
2023/02/07 04:12:22;;;;;;;48.50;8.98;;;0.70;99.90;;;;;;4988150;28;20057;-64
2023/02/07 04:14:49;;;;;;;37.30;9.50;;;0.70;99.90;;;;;;4987701;28;20042;-64
2023/02/07 04:17:16;;;;;;;25.17;8.02;;;0.60;99.90;;;;;;4994710;28;20054;-63
2023/02/07 04:19:42;;;;;;;34.47;9.85;;;0.60;99.90;;;;;;4987926;28;20437;-60
2023/02/07 04:22:10;;;;;;;23.05;8.05;;;0.60;99.90;;;;;;4987845;28;20052;-64
2023/02/07 04:24:37;;;;;;;18.25;7.60;;;0.50;99.90;;;;;;4987843;28;20055;-64
2023/02/07 04:27:03;;;;;;;32.95;8.80;;;0.60;99.90;;;;;;4987823;28;20049;-64
2023/02/07 04:29:30;;;;;;;31.92;10.43;;;0.60;99.90;;;;;;4987796;28;20509;-64
2023/02/07 04:31:57;;;;;;;19.35;7.90;;;0.50;99.90;;;;;;4987746;28;20647;-65
2023/02/07 04:34:24;;;;;;;28.10;8.20;;;0.50;99.90;;;;;;4987645;28;20073;-63
2023/02/07 04:36:51;;;;;;;15.90;6.45;;;0.40;99.90;;;;;;4987448;28;20058;-62
2023/02/07 04:39:18;;;;;;;21.48;8.05;;;0.40;99.90;;;;;;4987534;28;20540;-64
2023/02/07 04:41:45;;;;;;;26.15;9.50;;;0.40;99.90;;;;;;4987463;28;20069;-64
2023/02/07 04:44:11;;;;;;;20.00;6.97;;;0.50;99.90;;;;;;4987786;28;20100;-64
2023/02/07 04:46:38;;;;;;;19.02;7.68;;;0.50;99.90;;;;;;4985238;28;20125;-64
2023/02/07 04:49:05;;;;;;;19.50;6.18;;;0.40;99.90;;;;;;4991455;28;20087;-64
2023/02/07 04:51:32;;;;;;;15.88;6.93;;;0.40;99.90;;;;;;4987477;28;20096;-61
2023/02/07 04:53:58;;;;;;;19.52;8.05;;;0.40;99.90;;;;;;4987484;28;20066;-63
2023/02/07 04:56:25;;;;;;;13.65;8.07;;;0.30;99.90;;;;;;4986978;28;20133;-62
2023/02/07 04:58:52;;;;;;;17.35;8.32;;;0.20;99.90;;;;;;4987421;28;20065;-62
2023/02/07 05:01:19;;;;;;;16.15;6.97;;;0.20;99.90;;;;;;4987448;28;20050;-62
2023/02/07 05:03:46;;;;;;;13.48;7.05;;;0.20;99.90;;;;;;4987545;28;20053;-62
2023/02/07 05:06:12;;;;;;;23.92;8.02;;;0.20;99.90;;;;;;4995445;28;20052;-62
2023/02/07 05:08:39;;;;;;;22.17;8.10;;;0.20;99.90;;;;;;4987409;28;20057;-62
2023/02/07 05:11:06;;;;;;;27.95;8.80;;;0.20;99.90;;;;;;4987374;28;20062;-62
2023/02/07 05:13:32;;;;;;;27.88;8.75;;;0.30;99.90;;;;;;4987547;28;20046;-64
2023/02/07 05:16:02;;;;;;;19.58;7.45;;;0.30;99.90;;;;;;4987419;28;20054;-62
2023/02/07 05:18:29;;;;;;;28.58;10.63;;;0.30;99.90;;;;;;4986855;28;20046;-63
2023/02/07 05:20:56;;;;;;;41.38;8.90;;;0.30;99.90;;;;;;4987905;28;20057;-63
2023/02/07 05:23:23;;;;;;;40.22;9.57;;;0.30;99.90;;;;;;4987287;28;20046;-63
2023/02/07 05:25:50;;;;;;;22.98;8.02;;;0.30;99.90;;;;;;4971776;28;20046;-63
2023/02/07 05:28:17;;;;;;;45.88;11.32;;;0.30;99.90;;;;;;4990605;28;20229;-62
2023/02/07 05:30:44;;;;;;;36.13;9.27;;;0.30;99.90;;;;;;4990993;28;20134;-62
2023/02/07 05:33:11;;;;;;;40.25;11.02;;;0.40;99.90;;;;;;4990895;28;20490;-62
2023/02/07 05:35:43;;;;;;;33.13;10.52;;;0.20;99.90;;;;;;4991055;28;20047;-63
2023/02/07 05:38:11;;;;;;;45.90;11.63;;;0.20;99.90;;;;;;4990645;28;20409;-63
2023/02/07 05:40:38;;;;;;;48.55;10.48;;;0.20;99.90;;;;;;4990880;28;20137;-63
2023/02/07 05:43:05;;;;;;;44.10;10.07;;;0.20;99.90;;;;;;4973704;28;20116;-63
2023/02/07 05:45:32;;;;;;;42.47;10.13;;;0.10;99.90;;;;;;4991644;28;20054;-62
2023/02/07 05:47:59;;;;;;;45.50;13.27;;;0.00;99.90;;;;;;4991305;28;20039;-62
2023/02/07 05:50:26;;;;;;;38.85;13.02;;;0.00;99.90;;;;;;4991124;28;20050;-63
2023/02/07 05:52:52;;;;;;;43.00;11.90;;;-0.10;99.90;;;;;;4990659;28;20042;-63
2023/02/07 05:55:19;;;;;;;34.53;11.02;;;-0.10;99.90;;;;;;4990599;28;20683;-63
2023/02/07 05:57:46;;;;;;;48.30;12.02;;;0.00;99.90;;;;;;4990455;28;20050;-63
2023/02/07 06:00:14;;;;;;;35.05;10.10;;;0.00;99.90;;;;;;4991902;28;20058;-62
2023/02/07 06:02:41;;;;;;;36.10;10.20;;;0.10;99.90;;;;;;4990807;28;20054;-61
2023/02/07 06:05:09;;;;;;;28.27;10.65;;;0.00;99.90;;;;;;4990253;28;20533;-62
2023/02/07 06:07:36;;;;;;;32.92;9.85;;;0.10;99.90;;;;;;4990104;28;20050;-62
2023/02/07 06:10:04;;;;;;;33.95;9.82;;;0.10;99.90;;;;;;4989880;28;20505;-63
2023/02/07 06:12:31;;;;;;;34.65;10.60;;;0.10;99.90;;;;;;4972945;28;20133;-62
2023/02/07 06:14:58;;;;;;;26.15;9.15;;;0.10;99.90;;;;;;4989959;28;20046;-63
2023/02/07 06:17:25;;;;;;;26.85;9.35;;;0.00;99.90;;;;;;4990095;28;20046;-63
2023/02/07 06:19:52;;;;;;;24.45;8.00;;;0.20;99.90;;;;;;4989693;28;20050;-64
2023/02/07 06:22:19;;;;;;;23.90;8.15;;;0.10;99.90;;;;;;4990239;28;20053;-64
2023/02/07 06:24:46;;;;;;;24.83;8.60;;;0.00;99.90;;;;;;4989661;28;20047;-63
2023/02/07 06:27:12;;;;;;;21.27;7.70;;;0.00;99.90;;;;;;4989452;28;20060;-63
2023/02/07 06:29:39;;;;;;;22.13;8.80;;;0.00;99.90;;;;;;4989931;28;20042;-63
2023/02/07 06:32:06;;;;;;;22.73;7.70;;;0.00;99.90;;;;;;4990923;28;20414;-63
2023/02/07 06:34:32;;;;;;;27.30;9.60;;;0.00;99.90;;;;;;4990890;28;20046;-63
2023/02/07 06:36:59;;;;;;;28.95;10.98;;;0.00;99.90;;;;;;4989766;28;20043;-63
2023/02/07 06:39:26;;;;;;;19.35;7.20;;;0.00;99.90;;;;;;4990563;28;20048;-64
2023/02/07 06:41:53;;;;;;;29.48;7.15;;;0.00;99.90;;;;;;4990956;28;20121;-65
2023/02/07 06:44:19;;;;;;;33.42;9.73;;;0.00;99.90;;;;;;4990254;28;20145;-63
2023/02/07 06:46:46;;;;;;;22.13;8.10;;;0.00;99.90;;;;;;4973090;28;20046;-65
2023/02/07 06:49:13;;;;;;;22.77;9.93;;;0.00;99.90;;;;;;4989620;28;20151;-64
2023/02/07 06:51:40;;;;;;;25.95;8.65;;;0.00;99.90;;;;;;4988788;28;20052;-63
2023/02/07 06:54:08;;;;;;;27.48;7.38;;;0.00;99.90;;;;;;4989554;28;20042;-63
2023/02/07 06:56:36;;;;;;;16.92;6.97;;;0.00;99.90;;;;;;4988410;28;20069;-63
2023/02/07 06:59:03;;;;;;;18.85;8.02;;;-0.10;99.90;;;;;;4989386;28;20336;-63
2023/02/07 07:01:30;;;;;;;16.92;7.53;;;-0.10;99.90;;;;;;4989368;28;20494;-64
2023/02/07 07:03:57;;;;;;;24.85;8.32;;;-0.10;99.90;;;;;;4989143;28;20409;-64
2023/02/07 07:06:23;;;;;;;26.80;8.75;;;-0.10;99.90;;;;;;4989104;28;20046;-63
2023/02/07 07:08:50;;;;;;;24.52;8.55;;;-0.10;99.90;;;;;;4988777;28;20100;-64
2023/02/07 07:11:17;;;;;;;25.27;8.95;;;-0.10;99.90;;;;;;4988739;28;20050;-62
2023/02/07 07:13:45;;;;;;;24.20;9.05;;;-0.10;99.90;;;;;;4989409;28;20050;-63
2023/02/07 07:16:11;;;;;;;21.50;7.97;;;-0.10;99.90;;;;;;4989147;28;20054;-63
2023/02/07 07:18:38;;;;;;;22.02;8.45;;;-0.10;99.90;;;;;;4971428;28;20068;-63
2023/02/07 07:21:06;;;;;;;31.95;8.57;;;-0.10;99.90;;;;;;4988417;28;20125;-64
2023/02/07 07:23:33;;;;;;;29.90;9.32;;;0.00;99.90;;;;;;4986383;28;20416;-64
2023/02/07 07:25:59;;;;;;;22.10;8.82;;;0.00;99.90;;;;;;4968422;28;20126;-64
2023/02/07 07:28:26;;;;;;;20.15;9.32;;;0.00;99.90;;;;;;4985087;28;20072;-62
2023/02/07 07:30:53;;;;;;;28.63;10.48;;;0.00;99.90;;;;;;4985494;28;20047;-64
2023/02/07 07:33:20;;;;;;;24.95;8.75;;;-0.10;99.90;;;;;;4985703;28;20054;-64
2023/02/07 07:35:46;;;;;;;33.72;11.27;;;-0.10;99.90;;;;;;4985174;28;20050;-63
2023/02/07 07:38:13;;;;;;;25.23;10.40;;;-0.20;99.90;;;;;;4985958;28;20046;-66
2023/02/07 07:40:40;;;;;;;20.38;7.88;;;-0.10;99.90;;;;;;4986435;28;20050;-63
2023/02/07 07:43:07;;;;;;;16.13;6.20;;;-0.20;99.90;;;;;;4985788;28;20050;-72
2023/02/07 07:45:34;;;;;;;22.20;8.48;;;-0.20;99.90;;;;;;4985888;28;20069;-65
2023/02/07 07:48:00;;;;;;;22.83;6.95;;;-0.20;99.90;;;;;;4985422;28;20058;-63
2023/02/07 07:50:27;;;;;;;16.17;6.38;;;-0.10;99.90;;;;;;4984692;28;20056;-61
2023/02/07 07:52:54;;;;;;;18.77;6.40;;;-0.20;99.90;;;;;;4985971;28;20409;-60
2023/02/07 07:55:21;;;;;;;23.67;6.97;;;-0.20;99.90;;;;;;4968742;28;20090;-61
2023/02/07 07:57:48;;;;;;;24.38;6.63;;;-0.20;99.90;;;;;;4985340;28;20057;-61
2023/02/07 08:00:15;;;;;;;24.52;7.30;;;-0.20;99.90;;;;;;4986109;28;20913;-61
2023/02/07 08:02:42;;;;;;;12.73;5.97;;;-0.20;99.90;;;;;;4968540;28;20050;-61
2023/02/07 08:05:09;;;;;;;18.92;7.22;;;-0.10;99.90;;;;;;4985428;28;20058;-61
2023/02/07 08:07:39;;;;;;;25.20;8.65;;;-0.10;99.90;;;;;;4985021;28;20077;-61
2023/02/07 08:10:06;;;;;;;20.60;7.97;;;0.00;99.90;;;;;;4986972;28;20062;-62
2023/02/07 08:12:33;;;;;;;35.00;9.43;;;0.00;99.90;;;;;;4985635;28;20046;-61
2023/02/07 08:15:00;;;;;;;22.95;8.40;;;0.10;99.90;;;;;;4983294;28;20085;-62
2023/02/07 08:17:27;;;;;;;25.33;11.05;;;0.10;99.90;;;;;;4988168;28;20498;-62
2023/02/07 08:19:54;;;;;;;30.52;10.93;;;0.20;99.90;;;;;;4986050;28;20552;-61
2023/02/07 08:22:21;;;;;;;30.13;9.50;;;0.20;99.90;;;;;;4987628;28;20069;-61
2023/02/07 08:24:48;;;;;;;27.45;9.77;;;0.20;99.90;;;;;;4626580;28;10000007;-57
2023/02/07 08:27:15;;;;;;;29.90;8.00;;;0.20;99.90;;;;;;4985671;28;20065;-62
2023/02/07 08:29:41;;;;;;;18.60;7.53;;;0.20;99.90;;;;;;4985282;28;20138;-58
2023/02/07 08:32:08;;;;;;;18.77;8.13;;;0.20;99.90;;;;;;4985449;28;20050;-54
2023/02/07 08:34:36;;;;;;;22.27;7.97;;;0.20;99.90;;;;;;4985357;28;20042;-62
2023/02/07 08:37:07;;;;;;;22.13;8.10;;;0.30;99.90;;;;;;4985224;28;20061;-61
2023/02/07 08:39:36;;;;;;;18.80;6.88;;;0.40;99.90;;;;;;4984617;28;20058;-61
2023/02/07 08:42:09;;;;;;;19.60;6.75;;;0.30;99.90;;;;;;4968066;28;20072;-57
2023/02/07 08:44:36;;;;;;;24.73;8.80;;;0.30;99.90;;;;;;4984968;28;20565;-61
2023/02/07 08:47:03;;;;;;;20.85;7.15;;;0.30;99.90;;;;;;4985065;28;20056;-56
2023/02/07 08:49:30;;;;;;;28.35;9.68;;;0.30;99.90;;;;;;4992536;28;20050;-56
2023/02/07 08:51:56;;;;;;;23.73;8.30;;;0.40;99.90;;;;;;4985221;28;20050;-55
2023/02/07 08:54:23;;;;;;;25.17;8.90;;;0.40;99.90;;;;;;4984599;28;20058;-55
2023/02/07 08:56:50;;;;;;;27.25;10.55;;;0.50;99.90;;;;;;4983723;28;20074;-55
2023/02/07 08:59:17;;;;;;;38.67;9.23;;;0.40;99.90;;;;;;4965812;28;20050;-53
2023/02/07 09:01:44;;;;;;;31.27;11.23;;;0.40;99.90;;;;;;4987524;28;20482;-53
2023/02/07 09:04:10;;;;;;;25.42;9.30;;;0.50;99.90;;;;;;4988034;28;20509;-54
2023/02/07 09:06:37;;;;;;;28.38;8.63;;;0.50;99.90;;;;;;4988126;28;20046;-55
2023/02/07 09:09:05;;;;;;;33.63;10.82;;;0.40;99.90;;;;;;4988576;28;20141;-54
2023/02/07 09:11:32;;;;;;;29.88;10.65;;;0.50;99.90;;;;;;4988819;28;20125;-57
2023/02/07 09:13:59;;;;;;;31.27;10.38;;;0.50;99.90;;;;;;4988594;28;20046;-55
2023/02/07 09:16:25;;;;;;;37.70;10.55;;;0.50;99.90;;;;;;4988156;28;20595;-58
2023/02/07 09:18:52;;;;;;;24.70;10.10;;;0.80;99.90;;;;;;4988459;28;20105;-57
2023/02/07 09:21:19;;;;;;;31.88;11.52;;;0.70;99.90;;;;;;4988145;28;20093;-58
2023/02/07 09:23:46;;;;;;;33.15;9.60;;;0.80;99.90;;;;;;4971111;28;20069;-58
2023/02/07 09:26:20;;;;;;;32.00;10.93;;;0.90;99.90;;;;;;4990724;28;20065;-56
2023/02/07 09:28:47;;;;;;;27.65;9.82;;;0.90;99.90;;;;;;4970928;28;20086;-56
2023/02/07 09:31:14;;;;;;;43.38;11.85;;;1.00;99.90;;;;;;4988307;28;20082;-60
2023/02/07 09:33:41;;;;;;;38.25;11.25;;;1.10;99.90;;;;;;4971254;28;20425;-60
2023/02/07 09:36:18;;;;;;;34.40;10.05;;;1.20;99.90;;;;;;4954566;28;20134;-58
2023/02/07 09:38:46;;;;;;;33.03;11.20;;;1.20;99.90;;;;;;4970860;28;20058;-55
2023/02/07 09:41:18;;;;;;;30.92;12.50;;;1.30;99.90;;;;;;4987902;28;20137;-58
2023/02/07 09:44:26;;;;;;;35.05;10.73;;;1.40;99.90;;;;;;4970749;28;20054;-56
2023/02/07 09:47:14;;;;;;;35.70;9.93;;;1.60;99.90;;;;;;4949768;28;20058;-56
2023/02/07 09:49:59;;;;;;;32.53;10.55;;;1.60;99.90;;;;;;4971027;28;20130;-60
2023/02/07 09:52:48;;;;;;;43.22;9.82;;;1.70;99.90;;;;;;4970776;28;20046;-57
2023/02/07 09:55:21;;;;;;;41.17;11.75;;;1.90;99.90;;;;;;4998485;28;20128;-56
2023/02/07 09:58:04;;;;;;;60.22;13.00;;;2.00;99.90;;;;;;4996344;28;20101;-58
2023/02/07 10:00:33;;;;;;;33.60;11.13;;;2.00;99.90;;;;;;5006058;28;20053;-57
2023/02/07 10:03:12;;;;;;;49.03;12.68;;;2.00;99.90;;;;;;4991546;28;20045;-61
2023/02/07 10:05:42;;;;;;;44.70;12.15;;;2.10;99.90;;;;;;5006182;28;20911;-55
2023/02/07 10:08:12;;;;;;;44.75;12.05;;;2.10;99.90;;;;;;5005345;28;20145;-56
2023/02/07 10:10:54;;;;;;;46.97;12.18;;;2.00;99.90;;;;;;5005739;28;20477;-56
2023/02/07 10:13:25;;;;;;;42.00;12.70;;;2.00;99.90;;;;;;5006611;28;20060;-57
2023/02/07 10:16:20;;;;;;;48.35;15.57;;;1.90;99.90;;;;;;5005614;28;20046;-51
2023/02/07 10:19:10;;;;;;;48.53;14.18;;;1.90;99.90;;;;;;4995045;28;20062;-57
2023/02/07 10:22:04;;;;;;;46.28;13.68;;;1.90;99.90;;;;;;5005958;28;20076;-58
2023/02/07 10:25:01;;;;;;;46.28;18.27;;;2.00;99.90;;;;;;4973589;28;20345;-56
2023/02/07 10:28:17;;;;;;;53.45;16.00;;;2.20;99.90;;;;;;5003291;28;20379;-57
2023/02/07 10:31:11;;;;;;;45.60;13.63;;;2.30;99.90;;;;;;5006595;28;20529;-64
2023/02/07 10:34:19;;;;;;;36.58;15.20;;;2.40;99.90;;;;;;5005465;28;20038;-57
2023/02/07 10:36:52;;;;;;;56.20;17.08;;;2.50;99.90;;;;;;4987865;28;20058;-56
2023/02/07 10:39:33;;;;;;;47.85;13.13;;;2.60;99.90;;;;;;5002242;28;20513;-56
2023/02/07 10:45:31;;;;;;;37.75;16.65;;;2.70;99.90;;;;;;4997808;27;1933492;-54
2023/02/07 10:47:58;;;;;;;33.85;14.50;;;2.60;99.90;;;;;;5024506;28;20096;-57
2023/02/07 10:50:25;;;;;;;48.00;17.77;;;2.60;99.90;;;;;;5044445;28;20171;-57
2023/02/07 10:52:56;;;;;;;53.00;18.95;;;2.60;99.90;;;;;;5024713;28;20053;-59
2023/02/07 10:55:41;;;;;;;33.90;15.05;;;2.60;99.90;;;;;;5041998;28;20049;-56
2023/02/07 10:58:21;;;;;;;45.15;18.08;;;2.60;99.90;;;;;;5024656;28;20075;-57
2023/02/07 11:00:53;;;;;;;35.28;15.40;;;2.70;99.90;;;;;;5032699;28;20049;-57
2023/02/07 11:03:21;;;;;;;44.00;16.88;;;2.70;99.90;;;;;;5024130;28;20045;-55
2023/02/07 11:06:03;;;;;;;56.88;16.88;;;2.70;99.90;;;;;;5041516;28;20057;-54
2023/02/07 11:08:31;;;;;;;34.30;14.38;;;2.90;99.90;;;;;;5024109;28;20045;-56
2023/02/07 11:10:59;;;;;;;31.70;15.40;;;2.90;99.90;;;;;;5041849;28;20088;-57
2023/02/07 11:13:28;;;;;;;45.63;14.10;;;3.10;99.90;;;;;;5041924;28;20045;-54
2023/02/07 11:16:00;;;;;;;50.35;18.20;;;3.10;99.90;;;;;;5041629;28;20677;-56
2023/02/07 11:18:27;;;;;;;48.42;15.55;;;3.20;99.90;;;;;;5023542;28;20045;-57
2023/02/07 11:20:55;;;;;;;40.42;16.08;;;3.40;99.90;;;;;;5040179;28;20060;-57
2023/02/07 11:23:22;;;;;;;39.78;15.57;;;3.50;99.90;;;;;;5020968;28;20076;-57
2023/02/07 11:25:48;;;;;;;35.85;14.27;;;3.50;99.90;;;;;;5041239;28;20478;-56
2023/02/07 11:28:26;;;;;;;48.75;17.17;;;3.70;99.90;;;;;;5007527;28;20905;-56
2023/02/07 11:31:02;;;;;;;43.65;14.88;;;3.90;99.90;;;;;;5024112;28;20546;-56
2023/02/07 11:33:31;;;;;;;40.78;12.55;;;4.00;99.90;;;;;;5023954;28;20049;-56
2023/02/07 11:36:05;;;;;;;43.70;15.02;;;4.20;99.90;;;;;;5023195;28;20097;-57
2023/02/07 11:38:39;;;;;;;36.28;12.80;;;4.30;99.90;;;;;;5041401;28;20051;-55
2023/02/07 11:41:18;;;;;;;31.33;12.77;;;4.50;99.90;;;;;;5040978;28;20601;-54
2023/02/07 11:43:52;;;;;;;30.30;13.23;;;4.60;99.90;;;;;;5025021;28;20144;-58
2023/02/07 11:46:18;;;;;;;37.08;12.32;;;4.70;99.90;;;;;;5040745;28;20059;-55
2023/02/07 11:48:48;;;;;;;31.60;12.43;;;4.80;99.90;;;;;;5024027;28;20096;-56
2023/02/07 11:51:16;;;;;;;31.25;10.60;;;4.90;99.90;;;;;;5022670;28;20064;-58
2023/02/07 11:54:15;;;;;;;35.30;12.35;;;5.00;99.90;;;;;;5040995;28;20063;-55
2023/02/07 11:56:42;;;;;;;59.00;17.48;;;5.20;99.90;;;;;;4954507;28;20057;-54
2023/02/07 11:59:35;;;;;;;29.75;11.52;;;5.30;99.90;;;;;;4990705;28;20050;-52
2023/02/07 12:02:15;;;;;;;38.90;10.50;;;5.40;99.90;;;;;;4993936;28;20519;-57
2023/02/07 12:04:42;;;;;;;24.20;9.82;;;5.50;99.90;;;;;;5027344;28;20515;-56
2023/02/07 12:07:26;;;;;;;24.77;9.32;;;5.60;99.90;;;;;;5027448;28;20733;-57
2023/02/07 12:09:58;;;;;;;26.73;9.20;;;5.60;99.90;;;;;;4978591;28;20049;-56
2023/02/07 12:12:44;;;;;;;27.27;9.38;;;5.70;99.90;;;;;;5009521;28;20068;-58
2023/02/07 12:15:45;;;;;;;25.90;8.70;;;5.80;99.90;;;;;;5009578;28;20055;-57
2023/02/07 12:18:26;;;;;;;31.85;8.95;;;5.80;99.90;;;;;;5027472;28;20072;-56
2023/02/07 12:21:05;;;;;;;27.45;9.20;;;5.90;99.90;;;;;;5010180;28;20083;-56
2023/02/07 12:23:46;;;;;;;28.83;9.20;;;6.00;99.90;;;;;;5021759;28;20139;-55
2023/02/07 12:26:30;;;;;;;32.22;8.25;;;6.00;99.90;;;;;;5027217;28;20049;-57
2023/02/07 12:29:16;;;;;;;36.17;13.18;;;6.00;99.90;;;;;;4995454;28;20053;-55
2023/02/07 12:31:46;;;;;;;23.90;10.60;;;6.10;99.90;;;;;;5026625;28;20051;-58
2023/02/07 12:34:53;;;;;;;32.90;12.20;;;6.10;99.90;;;;;;5027084;28;20080;-57
2023/02/07 12:37:48;;;;;;;36.47;11.45;;;6.10;99.90;;;;;;4983893;28;20049;-59
2023/02/07 12:40:29;;;;;;;33.72;13.07;;;6.20;99.90;;;;;;5026632;28;20052;-57
2023/02/07 12:43:10;;;;;;;30.65;10.63;;;6.30;99.90;;;;;;5026815;28;20085;-54
2023/02/07 12:46:00;;;;;;;29.55;10.27;;;6.40;99.90;;;;;;5021881;28;20057;-56
2023/02/07 12:48:49;;;;;;;36.53;12.00;;;6.40;99.90;;;;;;5025128;28;20041;-57
2023/02/07 12:51:43;;;;;;;35.42;12.88;;;6.40;99.90;;;;;;5025585;28;20182;-57
2023/02/07 12:54:16;;;;;;;;;;;6.50;99.90;;;;;;5023721;28;20163;-58
2023/02/07 12:56:52;;;;;;;27.98;10.45;;;6.50;99.90;;;;;;5025444;28;20495;-53
2023/02/07 12:59:30;;;;;;;29.88;9.35;;;6.50;99.90;;;;;;4992055;28;20080;-55
2023/02/07 13:02:22;;;;;;;35.58;10.63;;;6.50;99.90;;;;;;5007889;28;20132;-57
2023/02/07 13:04:57;;;;;;;24.42;6.78;;;6.60;99.90;;;;;;5006809;28;20455;-54
2023/02/07 13:07:44;;;;;;;16.60;5.18;;;6.60;99.90;;;;;;5025186;28;20052;-56